createdAt,value
2023-03-23T16:00:22.842Z,86.33
2023-03-23T16:03:17.282Z,84.66
2023-03-23T16:06:03.914Z,85.25
2023-03-23T16:08:54.835Z,85.57
2023-03-23T16:11:42.261Z,84.56
2023-03-23T16:14:28.581Z,84.89
2023-03-23T16:17:20.545Z,85.31
2023-03-23T16:20:19.455Z,85.15
2023-03-23T16:23:05.709Z,85.42
2023-03-23T16:25:52.005Z,84.79
2023-03-23T16:28:39.135Z,85.80
2023-03-23T16:31:25.529Z,85.93
2023-03-23T16:34:11.851Z,86.20
2023-03-23T16:36:58.220Z,86.57
2023-03-23T16:39:44.764Z,86.82
2023-03-23T16:42:31.282Z,84.58
2023-03-23T16:45:18.028Z,84.63
2023-03-23T16:48:05.462Z,85.98
2023-03-23T16:50:52.617Z,86.86
2023-03-23T16:53:38.893Z,86.18
2023-03-23T16:56:25.311Z,86.20
2023-03-23T17:03:44.083Z,90.40
2023-03-23T17:06:31.079Z,92.34
2023-03-23T17:09:17.625Z,95.47
2023-03-23T17:12:04.576Z,97.58
2023-03-23T17:14:50.815Z,98.71
2023-03-23T17:17:37.569Z,100.00
2023-03-23T17:20:24.408Z,100.00
2023-03-23T17:23:11.239Z,100.00
2023-03-23T17:25:57.892Z,100.00
2023-03-23T17:28:44.221Z,100.00
2023-03-23T17:31:30.528Z,100.00
2023-03-23T17:34:18.719Z,100.00
2023-03-23T17:37:06.372Z,100.00
2023-03-23T17:39:52.609Z,100.00
2023-03-23T17:42:39.791Z,100.00
2023-03-23T17:45:26.676Z,100.00
2023-03-23T17:48:13.175Z,100.00
2023-03-23T17:51:02.256Z,100.00
2023-03-23T17:53:49.084Z,100.00
2023-03-23T17:56:35.395Z,100.00
2023-03-23T17:59:23.346Z,100.00
2023-03-23T18:02:11.364Z,100.00
2023-03-23T18:04:59.568Z,100.00
2023-03-23T18:07:46.154Z,100.00
2023-03-23T18:10:35.528Z,100.00
2023-03-23T18:13:21.903Z,100.00
2023-03-23T18:16:08.682Z,100.00
2023-03-23T18:18:56.319Z,100.00
2023-03-23T18:21:45.305Z,100.00
2023-03-23T18:24:32.101Z,100.00
2023-03-23T18:27:18.959Z,100.00
2023-03-23T18:30:06.217Z,100.00
2023-03-23T18:32:52.930Z,100.00
2023-03-23T18:35:39.585Z,97.54
2023-03-23T18:38:27.360Z,92.02
2023-03-23T18:41:14.122Z,90.56
2023-03-23T18:44:00.395Z,87.44
2023-03-23T18:46:46.951Z,84.67
2023-03-23T18:49:33.794Z,81.70
2023-03-23T18:52:20.710Z,79.86
2023-03-23T18:55:07.437Z,80.24
2023-03-23T18:57:53.809Z,78.84
2023-03-23T19:00:41.033Z,76.82
2023-03-23T19:03:27.644Z,74.62
2023-03-23T19:06:18.795Z,74.25
2023-03-23T19:09:05.073Z,74.83
2023-03-23T19:11:51.560Z,73.34
2023-03-23T19:14:42.449Z,73.23
2023-03-23T19:17:28.730Z,73.29
2023-03-23T19:20:23.597Z,72.62
2023-03-23T19:23:22.998Z,73.56
2023-03-23T19:26:21.725Z,72.44
2023-03-23T19:32:01.324Z,71.87
2023-03-23T19:34:51.072Z,71.12
2023-03-23T19:37:37.860Z,71.94
2023-03-23T19:40:39.150Z,72.68
2023-03-23T19:43:27.838Z,71.15
2023-03-23T19:46:14.643Z,71.66
2023-03-23T19:49:01.391Z,71.77
2023-03-23T19:51:47.893Z,72.30
2023-03-23T19:54:34.902Z,72.79
2023-03-23T19:57:23.067Z,72.98
2023-03-23T20:00:13.503Z,73.87
2023-03-23T20:03:00.213Z,74.61
2023-03-23T20:05:49.253Z,75.41
2023-03-23T20:08:36.354Z,75.46
2023-03-23T20:11:24.061Z,76.63
2023-03-23T20:14:11.098Z,77.67
2023-03-23T20:16:57.473Z,78.97
2023-03-23T20:19:44.678Z,78.38
2023-03-23T20:22:30.992Z,79.34
2023-03-23T20:25:17.574Z,78.17
2023-03-23T20:28:04.528Z,80.24
2023-03-23T20:31:20.959Z,80.78
2023-03-23T20:34:13.137Z,80.44
2023-03-23T20:37:01.847Z,81.05
2023-03-23T20:39:49.052Z,80.88
2023-03-23T20:42:39.132Z,81.81
2023-03-23T20:45:25.364Z,81.11
2023-03-23T20:48:12.508Z,80.67
2023-03-23T20:51:00.457Z,81.91
2023-03-23T20:53:48.543Z,81.73
2023-03-23T20:56:35.052Z,82.95
2023-03-23T20:59:21.858Z,83.68
2023-03-23T21:02:14.785Z,83.78
2023-03-23T21:05:04.958Z,83.75
2023-03-23T21:07:51.410Z,84.69
2023-03-23T21:10:38.746Z,84.97
2023-03-23T21:13:25.688Z,85.76
2023-03-23T21:16:12.271Z,86.16
2023-03-23T21:18:58.846Z,86.33
2023-03-23T21:21:56.766Z,87.33
2023-03-23T21:24:43.610Z,88.05
2023-03-23T21:27:30.678Z,88.40
2023-03-23T21:30:17.990Z,89.03
2023-03-23T21:37:38.012Z,89.94
2023-03-23T21:40:24.749Z,89.38
2023-03-23T21:43:16.478Z,89.58
2023-03-23T21:46:05.471Z,88.89
2023-03-23T21:48:52.624Z,88.55
2023-03-23T21:51:39.007Z,88.87
2023-03-23T21:54:30.369Z,89.17
2023-03-23T21:57:16.908Z,89.08
2023-03-23T22:00:07.134Z,89.38
2023-03-23T22:02:53.469Z,90.11
2023-03-23T22:05:40.563Z,90.97
2023-03-23T22:08:29.510Z,90.66
2023-03-23T22:11:25.341Z,90.93
2023-03-23T22:14:12.096Z,90.79
2023-03-23T22:16:58.445Z,91.26
2023-03-23T22:19:45.215Z,92.31
2023-03-23T22:22:32.185Z,92.67
2023-03-23T22:25:19.775Z,94.01
2023-03-23T22:28:06.513Z,94.71
2023-03-23T22:31:02.657Z,94.18
2023-03-23T22:33:54.242Z,94.37
2023-03-23T22:36:41.256Z,95.03
2023-03-23T22:39:28.537Z,94.43
2023-03-23T22:42:15.054Z,94.12
2023-03-23T22:45:01.710Z,94.45
2023-03-23T22:47:48.036Z,94.18
2023-03-23T22:50:34.819Z,93.65
2023-03-23T22:53:21.994Z,92.58
2023-03-23T22:56:09.204Z,93.42
2023-03-23T22:58:56.390Z,93.55
2023-03-23T23:01:42.663Z,94.86
2023-03-23T23:04:29.236Z,97.06
2023-03-23T23:07:16.129Z,98.65
2023-03-23T23:10:03.533Z,100.00
2023-03-23T23:12:50.185Z,100.00
2023-03-23T23:15:37.809Z,100.00
2023-03-23T23:18:25.955Z,100.00
2023-03-23T23:21:16.395Z,100.00
2023-03-23T23:24:03.811Z,100.00
2023-03-23T23:26:50.226Z,100.00
2023-03-23T23:29:37.072Z,100.00
2023-03-23T23:32:24.599Z,100.00
2023-03-23T23:35:13.000Z,100.00
2023-03-23T23:37:59.260Z,100.00
2023-03-23T23:40:47.228Z,100.00
2023-03-23T23:43:34.129Z,100.00
2023-03-23T23:46:20.898Z,100.00
2023-03-23T23:49:07.503Z,100.00
2023-03-23T23:51:55.029Z,100.00
2023-03-23T23:54:42.505Z,100.00
2023-03-23T23:57:29.192Z,100.00
